International Virtual Aviation Organisation

Russian Federation and Kazakhstan MCD

 
UNNT 031830Z 18002MPS 9000 SCT002 M19/M22 Q1035 R25/490150 R16/410160 NOSIG RMK QFE766/1022
QNH:(hPa/inHg/mmHg)1035 / 30.56 / 776
QFE:(hPa/inHg/mmHg)1021 / 30.16 / 766
Temperature-19
Dew Point-22
Visibility9000
Weather
Cloud CoverSCT (200);
Transition Height1300 m./4700 ft.
Transition LevelFL60
SQUAWK